Time;durP1;ratioP1;P1;durP2;ratioP2;P2;SDS_P1;SDS_P2;PMS_P1;PMS_P2;Temp;Humidity;BMP_temperature;BMP_pressure;BME280_temperature;BME280_humidity;BME280_pressure;Samples;Min_cycle;Max_cycle;Signal;HPM_P1;HPM_P2
2022/01/13 00:01:09;;;;;;;73.53;20.23;;;5.40;99.90;;;;;;5032436;28;20041;-73
2022/01/13 00:03:35;;;;;;;65.03;18.15;;;5.30;99.90;;;;;;5014626;28;20120;-72
2022/01/13 00:06:01;;;;;;;57.60;18.02;;;5.30;99.90;;;;;;5032840;28;20553;-73
2022/01/13 00:08:26;;;;;;;51.70;16.80;;;5.30;99.90;;;;;;5032178;28;20037;-72
2022/01/13 00:10:52;;;;;;;55.25;16.73;;;5.30;99.90;;;;;;5015576;28;20040;-73
2022/01/13 00:13:24;;;;;;;58.28;17.00;;;5.40;99.90;;;;;;5031704;28;20592;-72
2022/01/13 00:16:12;;;;;;;52.78;16.15;;;5.20;99.90;;;;;;5018400;28;20099;-73
2022/01/13 00:18:40;;;;;;;55.30;15.80;;;5.10;99.90;;;;;;5015729;28;20049;-72
2022/01/13 00:23:53;;;;;;;51.83;14.18;;;5.10;99.90;;;;;;5020303;28;20461;-72
2022/01/13 00:26:26;;;;;;;50.53;12.85;;;5.10;99.90;;;;;;5002173;28;20700;-72
2022/01/13 00:28:53;;;;;;;55.30;14.63;;;5.10;99.90;;;;;;5017184;28;20426;-72
2022/01/13 00:31:26;;;;;;;54.47;15.00;;;5.00;99.90;;;;;;5017197;28;20128;-72
2022/01/13 00:33:54;;;;;;;65.00;15.40;;;5.00;99.90;;;;;;4998870;28;20092;-72
2022/01/13 00:36:24;;;;;;;50.22;14.25;;;5.00;99.90;;;;;;5016114;28;20059;-72
2022/01/13 00:38:51;;;;;;;56.83;14.80;;;5.00;99.90;;;;;;5011574;28;20030;-72
2022/01/13 00:41:16;;;;;;;49.60;14.35;;;5.00;99.90;;;;;;5019725;28;20573;-72
2022/01/13 00:43:45;;;;;;;40.70;13.65;;;5.00;99.90;;;;;;5021345;28;20041;-72
2022/01/13 00:46:18;;;;;;;48.10;14.90;;;4.90;99.90;;;;;;4999519;28;20048;-72
2022/01/13 00:48:44;;;;;;;49.83;14.98;;;5.00;99.90;;;;;;5018861;28;20088;-72
2022/01/13 00:51:09;;;;;;;41.25;14.00;;;5.00;99.90;;;;;;5003959;28;20073;-72
2022/01/13 00:53:35;;;;;;;42.83;13.93;;;5.00;99.90;;;;;;5016781;28;20045;-72
2022/01/13 00:56:01;;;;;;;44.00;14.63;;;4.90;99.90;;;;;;5011367;28;20073;-72
2022/01/13 00:58:31;;;;;;;46.53;14.90;;;4.90;99.90;;;;;;4993584;28;20047;-72
2022/01/13 01:00:59;;;;;;;58.92;15.63;;;4.90;99.90;;;;;;4993745;28;20368;-72
2022/01/13 01:03:25;;;;;;;45.97;15.10;;;4.90;99.90;;;;;;4982967;28;20125;-72
2022/01/13 01:05:51;;;;;;;45.33;14.35;;;4.90;99.90;;;;;;4995112;28;20657;-72
2022/01/13 01:08:17;;;;;;;54.83;15.88;;;4.90;99.90;;;;;;4995383;28;20038;-72
2022/01/13 01:10:46;;;;;;;44.05;15.85;;;4.90;99.90;;;;;;4994853;28;20038;-72
2022/01/13 01:13:14;;;;;;;48.13;16.25;;;4.90;99.90;;;;;;4995228;28;20045;-72
2022/01/13 01:15:45;;;;;;;48.03;15.80;;;4.90;99.90;;;;;;5009359;28;20045;-72
2022/01/13 01:23:33;;;;;;;64.70;18.13;;;4.90;99.90;;;;;;5028925;28;20066;-73
2022/01/13 01:26:05;;;;;;;68.07;16.67;;;4.90;99.90;;;;;;5032761;28;20057;-72
2022/01/13 01:28:41;;;;;;;59.50;16.95;;;4.90;99.90;;;;;;5012224;28;20038;-72
2022/01/13 01:31:07;;;;;;;55.92;17.23;;;5.00;99.90;;;;;;5013497;28;20045;-72
2022/01/13 01:33:34;;;;;;;53.83;17.80;;;5.00;99.90;;;;;;5033496;28;20055;-72
2022/01/13 01:36:00;;;;;;;71.55;18.58;;;5.00;99.90;;;;;;5015326;28;20045;-73
2022/01/13 01:38:26;;;;;;;57.38;17.45;;;4.90;99.90;;;;;;5035106;28;20049;-72
2022/01/13 01:40:51;;;;;;;61.22;16.77;;;4.90;99.90;;;;;;5015326;28;20491;-72
2022/01/13 01:43:17;;;;;;;65.57;19.13;;;4.90;99.90;;;;;;5028508;28;20081;-72
2022/01/13 01:45:48;;;;;;;62.60;18.20;;;5.00;99.90;;;;;;5014876;28;20211;-72
2022/01/13 01:48:19;;;;;;;61.40;18.33;;;4.90;99.90;;;;;;5044138;28;20049;-72
2022/01/13 01:50:53;;;;;;;62.53;18.35;;;4.90;99.90;;;;;;5044847;28;20041;-72
2022/01/13 01:53:19;;;;;;;59.70;16.75;;;5.00;99.90;;;;;;5012406;28;20223;-73
2022/01/13 01:55:44;;;;;;;61.70;17.17;;;4.90;99.90;;;;;;5022618;28;20127;-72
2022/01/13 01:58:11;;;;;;;60.15;17.70;;;5.00;99.90;;;;;;5039584;28;20076;-72
2022/01/13 02:00:36;;;;;;;58.05;17.25;;;4.90;99.90;;;;;;5036232;28;20041;-72
2022/01/13 02:03:05;;;;;;;69.50;17.80;;;4.90;99.90;;;;;;5011385;28;20556;-73
2022/01/13 02:05:30;;;;;;;59.05;16.98;;;4.90;99.90;;;;;;5021059;28;20448;-72
2022/01/13 02:07:56;;;;;;;58.40;16.67;;;4.90;99.90;;;;;;5028214;28;20040;-73
2022/01/13 02:10:22;;;;;;;63.10;17.30;;;5.00;99.90;;;;;;5028063;28;20391;-72
2022/01/13 02:12:51;;;;;;;55.85;16.85;;;5.00;99.90;;;;;;5011997;28;20049;-73
2022/01/13 02:15:35;;;;;;;57.35;17.83;;;4.90;99.90;;;;;;5025404;28;20096;-73
2022/01/13 02:18:04;;;;;;;59.42;18.13;;;4.90;99.90;;;;;;5029172;28;20065;-72
2022/01/13 02:20:53;;;;;;;57.03;18.10;;;4.90;99.90;;;;;;5015381;28;20492;-73
2022/01/13 02:23:34;;;;;;;53.45;17.17;;;5.00;99.90;;;;;;5039776;28;20135;-72
2022/01/13 02:26:00;;;;;;;65.72;19.30;;;5.00;99.90;;;;;;5031068;28;20037;-73
2022/01/13 02:28:26;;;;;;;58.70;17.30;;;5.00;99.90;;;;;;5026444;28;20410;-72
2022/01/13 02:30:52;;;;;;;66.25;18.73;;;5.00;99.90;;;;;;5012523;28;20114;-72
2022/01/13 02:33:17;;;;;;;55.40;17.40;;;5.00;99.90;;;;;;5010334;28;20492;-73
2022/01/13 02:35:43;;;;;;;66.07;18.10;;;5.00;99.90;;;;;;5026626;28;20041;-72
2022/01/13 02:38:11;;;;;;;71.82;18.67;;;5.00;99.90;;;;;;5026874;28;20076;-72
2022/01/13 02:40:38;;;;;;;66.40;18.23;;;5.00;99.90;;;;;;5038810;28;20434;-72
2022/01/13 02:43:05;;;;;;;54.85;17.02;;;5.00;99.90;;;;;;5036218;28;20445;-73
2022/01/13 02:45:34;;;;;;;68.50;18.17;;;5.00;99.90;;;;;;5029119;28;20053;-72
2022/01/13 02:48:27;;;;;;;53.13;16.20;;;5.00;99.90;;;;;;5027195;28;20525;-73
2022/01/13 02:50:54;;;;;;;50.90;17.17;;;5.00;99.90;;;;;;5041099;28;20375;-73
2022/01/13 02:53:20;;;;;;;52.40;15.90;;;5.00;99.90;;;;;;5031504;28;20506;-73
2022/01/13 02:55:45;;;;;;;58.67;17.10;;;5.10;99.90;;;;;;5035611;28;20048;-72
2022/01/13 02:58:15;;;;;;;57.20;17.20;;;5.00;99.90;;;;;;5026591;28;20050;-73
2022/01/13 03:00:42;;;;;;;59.15;16.40;;;5.00;99.90;;;;;;5012463;28;20528;-72
2022/01/13 03:03:08;;;;;;;54.80;16.85;;;5.00;99.90;;;;;;5026170;28;20042;-73
2022/01/13 03:05:37;;;;;;;66.13;17.85;;;5.10;99.90;;;;;;5015438;28;20403;-72
2022/01/13 03:08:07;;;;;;;56.90;16.52;;;5.10;99.90;;;;;;5026011;28;20050;-73
2022/01/13 03:10:33;;;;;;;72.40;17.50;;;5.00;99.90;;;;;;5032355;28;20045;-73
2022/01/13 03:13:00;;;;;;;64.63;17.65;;;5.00;99.90;;;;;;5019255;28;20048;-72
2022/01/13 03:15:26;;;;;;;49.22;16.95;;;5.10;99.90;;;;;;5037575;28;20061;-72
2022/01/13 03:17:52;;;;;;;67.18;18.42;;;5.00;99.90;;;;;;5026083;28;20072;-72
2022/01/13 03:20:18;;;;;;;62.67;17.98;;;5.00;99.90;;;;;;5009528;28;20048;-72
2022/01/13 03:22:44;;;;;;;60.88;18.13;;;5.00;99.90;;;;;;5017539;28;20037;-72
2022/01/13 03:25:10;;;;;;;75.15;17.80;;;5.10;99.90;;;;;;5015148;28;20041;-72
2022/01/13 03:27:36;;;;;;;59.65;17.08;;;5.00;99.90;;;;;;5030852;28;20056;-73
2022/01/13 03:30:08;;;;;;;63.30;17.23;;;5.00;99.90;;;;;;5044959;28;20052;-72
2022/01/13 03:32:35;;;;;;;53.40;16.88;;;5.00;99.90;;;;;;5043836;28;20057;-73
2022/01/13 03:35:02;;;;;;;63.58;17.25;;;5.00;99.90;;;;;;5031150;28;20053;-72
2022/01/13 03:37:29;;;;;;;65.43;17.00;;;5.00;99.90;;;;;;5030227;28;20049;-73
2022/01/13 03:39:55;;;;;;;55.38;16.83;;;5.00;99.90;;;;;;5033800;28;20037;-73
2022/01/13 03:42:21;;;;;;;54.33;16.98;;;5.00;99.90;;;;;;5020758;28;20044;-73
2022/01/13 03:44:46;;;;;;;52.15;16.23;;;4.90;99.90;;;;;;5017830;28;20045;-73
2022/01/13 03:47:13;;;;;;;58.28;17.15;;;5.00;99.90;;;;;;5016927;28;20042;-73
2022/01/13 03:49:39;;;;;;;55.17;17.30;;;4.90;99.90;;;;;;5032264;28;20049;-73
2022/01/13 03:52:23;;;;;;;78.18;18.75;;;4.90;99.90;;;;;;5038615;28;20073;-73
2022/01/13 03:55:33;;;;;;;80.28;18.17;;;4.90;99.90;;;;;;5030216;28;20049;-73
2022/01/13 03:58:30;;;;;;;101.25;18.73;;;4.90;99.90;;;;;;5014644;28;20037;-73
2022/01/13 04:01:13;;;;;;;52.72;16.10;;;4.90;99.90;;;;;;5030756;28;20051;-73
2022/01/13 04:03:39;;;;;;;58.10;16.77;;;4.90;99.90;;;;;;5029694;28;20174;-73
2022/01/13 04:06:33;;;;;;;59.67;17.98;;;4.90;99.90;;;;;;5023442;28;20056;-73
2022/01/13 04:08:59;;;;;;;65.75;18.17;;;4.90;99.90;;;;;;5036402;28;20513;-72
2022/01/13 04:11:33;;;;;;;77.35;18.15;;;4.90;99.90;;;;;;5012816;28;20128;-73
2022/01/13 04:14:05;;;;;;;82.63;18.92;;;4.90;99.90;;;;;;5024966;28;20049;-73
2022/01/13 04:16:33;;;;;;;58.63;18.42;;;5.00;99.90;;;;;;5033354;28;20404;-73
2022/01/13 04:19:04;;;;;;;82.90;20.90;;;4.90;99.90;;;;;;5039372;28;20115;-72
2022/01/13 04:21:32;;;;;;;64.20;17.92;;;5.00;99.90;;;;;;5043140;28;20044;-73
2022/01/13 04:23:58;;;;;;;91.05;19.60;;;5.00;99.90;;;;;;5048356;28;20174;-73
2022/01/13 04:26:30;;;;;;;70.00;18.38;;;5.00;99.90;;;;;;5032814;28;20051;-72
2022/01/13 04:29:30;;;;;;;76.88;17.60;;;5.00;99.90;;;;;;5033120;28;20052;-73
2022/01/13 04:31:49;;;;;;;68.82;17.67;;;5.00;99.90;;;;;;5047758;28;20059;-73
2022/01/13 04:34:17;;;;;;;79.72;18.25;;;5.10;99.90;;;;;;5024961;28;20056;-73
2022/01/13 04:36:43;;;;;;;66.53;17.63;;;5.10;99.90;;;;;;5015090;28;20102;-73
2022/01/13 04:39:11;;;;;;;86.22;17.55;;;5.10;99.90;;;;;;5017501;28;20472;-73
2022/01/13 04:41:38;;;;;;;77.28;18.08;;;5.10;99.90;;;;;;5065178;28;20043;-73
2022/01/13 04:44:09;;;;;;;89.63;18.20;;;5.10;99.90;;;;;;5047045;28;20049;-73
2022/01/13 04:46:35;;;;;;;69.78;17.17;;;5.10;99.90;;;;;;5032526;28;20040;-73
2022/01/13 04:49:01;;;;;;;68.25;16.48;;;5.10;99.90;;;;;;5034010;28;20095;-73
2022/01/13 04:51:30;;;;;;;63.10;17.45;;;5.10;99.90;;;;;;5065195;28;20045;-73
2022/01/13 04:53:56;;;;;;;62.00;15.98;;;5.10;99.90;;;;;;5031193;28;20179;-73
2022/01/13 04:56:39;;;;;;;69.63;16.98;;;5.10;99.90;;;;;;5032116;28;20040;-73
2022/01/13 04:59:06;;;;;;;125.70;20.10;;;5.10;99.90;;;;;;5039092;28;20052;-73
2022/01/13 05:01:31;;;;;;;56.60;15.80;;;5.10;99.90;;;;;;5037359;28;20140;-73
2022/01/13 05:03:57;;;;;;;90.65;17.85;;;5.10;99.90;;;;;;5039577;28;20127;-73
2022/01/13 05:06:23;;;;;;;81.57;16.85;;;5.10;99.90;;;;;;5031232;28;20057;-73
2022/01/13 05:08:49;;;;;;;73.00;17.38;;;5.10;99.90;;;;;;5039929;28;20036;-73
2022/01/13 05:11:17;;;;;;;66.45;17.25;;;5.10;99.90;;;;;;5044288;28;20114;-74
2022/01/13 05:13:43;;;;;;;69.63;16.52;;;5.10;99.90;;;;;;5016464;28;20375;-74
2022/01/13 05:16:18;;;;;;;106.40;18.67;;;5.10;99.90;;;;;;5012571;28;20100;-73
2022/01/13 05:18:53;;;;;;;106.75;19.33;;;5.10;99.90;;;;;;5032883;28;20164;-73
2022/01/13 05:21:24;;;;;;;108.72;18.77;;;5.10;99.90;;;;;;5037511;28;20132;-73
2022/01/13 05:23:52;;;;;;;70.80;15.82;;;5.10;99.90;;;;;;5028479;28;20045;-73
2022/01/13 05:26:22;;;;;;;93.68;17.95;;;5.10;99.90;;;;;;5027592;28;20128;-73
2022/01/13 05:28:47;;;;;;;78.40;17.65;;;5.10;99.90;;;;;;5049437;28;20054;-73
2022/01/13 05:31:13;;;;;;;87.03;18.63;;;5.20;99.90;;;;;;5058170;28;20556;-73
2022/01/13 05:33:39;;;;;;;113.70;19.50;;;5.10;99.90;;;;;;5045565;28;20546;-73
2022/01/13 05:36:05;;;;;;;111.25;18.75;;;5.20;99.90;;;;;;5026818;28;20088;-73
2022/01/13 05:38:31;;;;;;;98.88;20.20;;;5.20;99.90;;;;;;5028325;28;20426;-73
2022/01/13 05:40:58;;;;;;;91.53;18.63;;;5.20;99.90;;;;;;5027776;28;20045;-73
2022/01/13 05:43:24;;;;;;;96.50;20.05;;;5.30;99.90;;;;;;5030411;28;20065;-73
2022/01/13 05:45:50;;;;;;;138.60;20.23;;;5.30;99.90;;;;;;5037922;28;20212;-73
2022/01/13 05:48:16;;;;;;;115.53;20.35;;;5.30;99.90;;;;;;5014955;28;20053;-73
2022/01/13 05:50:41;;;;;;;115.40;20.13;;;5.30;99.90;;;;;;5042961;28;20087;-73
2022/01/13 05:53:08;;;;;;;105.82;20.25;;;5.30;99.90;;;;;;5028679;28;20493;-72
2022/01/13 05:55:34;;;;;;;176.50;24.38;;;5.40;99.90;;;;;;5026997;28;20045;-73
2022/01/13 05:57:59;;;;;;;127.05;20.38;;;5.40;99.90;;;;;;5037608;28;20095;-73
2022/01/13 06:00:25;;;;;;;103.80;21.58;;;5.40;99.90;;;;;;5028682;28;20141;-73
2022/01/13 06:02:51;;;;;;;118.38;20.50;;;5.40;99.90;;;;;;5026072;28;20037;-73
2022/01/13 06:05:18;;;;;;;124.75;21.63;;;5.40;99.90;;;;;;5040902;28;20107;-73
2022/01/13 06:07:44;;;;;;;119.70;19.55;;;5.50;99.90;;;;;;5036837;28;20390;-73
2022/01/13 06:10:14;;;;;;;105.25;19.88;;;5.50;99.90;;;;;;5021884;28;20128;-73
2022/01/13 06:12:40;;;;;;;128.50;22.92;;;5.50;99.90;;;;;;5013306;28;20038;-73
2022/01/13 06:15:07;;;;;;;118.47;20.80;;;5.50;99.90;;;;;;5050842;28;20053;-73
2022/01/13 06:17:33;;;;;;;127.22;21.38;;;5.50;99.90;;;;;;4996674;28;20422;-73
2022/01/13 06:19:59;;;;;;;119.97;20.30;;;5.50;99.90;;;;;;5015191;28;20130;-73
2022/01/13 06:22:26;;;;;;;118.57;23.02;;;5.50;99.90;;;;;;5050855;28;20123;-73
2022/01/13 06:24:52;;;;;;;89.40;20.52;;;5.50;99.90;;;;;;4988923;28;20037;-74
2022/01/13 06:27:19;;;;;;;124.32;23.67;;;5.50;99.90;;;;;;4985594;28;20087;-73
2022/01/13 06:29:44;;;;;;;114.47;22.73;;;5.60;99.90;;;;;;4983864;28;20388;-72
2022/01/13 06:32:10;;;;;;;111.47;22.95;;;5.50;99.90;;;;;;4961907;28;20131;-73
2022/01/13 06:34:36;;;;;;;122.72;24.70;;;5.60;99.90;;;;;;5001381;28;20150;-73
2022/01/13 06:37:02;;;;;;;113.40;23.75;;;5.60;99.90;;;;;;5009844;28;20437;-73
2022/01/13 06:39:27;;;;;;;120.32;23.42;;;5.40;99.90;;;;;;5030139;28;20056;-72
2022/01/13 06:41:53;;;;;;;140.45;23.50;;;5.60;99.90;;;;;;5051019;28;20429;-73
2022/01/13 06:44:19;;;;;;;130.38;24.65;;;5.60;99.90;;;;;;5043323;28;20045;-72
2022/01/13 06:46:44;;;;;;;128.55;23.88;;;5.60;99.90;;;;;;4994325;28;20091;-73
2022/01/13 06:49:10;;;;;;;108.03;24.05;;;5.60;99.90;;;;;;5030967;28;20052;-72
2022/01/13 06:51:35;;;;;;;129.63;23.75;;;5.70;99.90;;;;;;5043627;28;20169;-73
2022/01/13 06:54:01;;;;;;;157.18;26.83;;;5.70;99.90;;;;;;5043592;28;20127;-73
2022/01/13 06:56:27;;;;;;;126.75;24.85;;;5.70;99.90;;;;;;4994423;28;20045;-72
2022/01/13 06:58:54;;;;;;;183.50;27.58;;;5.70;99.90;;;;;;5015321;28;20029;-73
2022/01/13 07:01:21;;;;;;;124.75;25.88;;;5.70;99.90;;;;;;5005598;28;21063;-73
2022/01/13 07:03:47;;;;;;;136.43;25.30;;;5.70;99.90;;;;;;5001083;28;20103;-73
2022/01/13 07:06:13;;;;;;;141.68;26.65;;;5.80;99.90;;;;;;5034238;28;20842;-73
2022/01/13 07:08:39;;;;;;;160.27;27.38;;;5.80;99.90;;;;;;5027644;28;20045;-73
2022/01/13 07:11:04;;;;;;;135.02;27.75;;;5.70;99.90;;;;;;4994682;28;20049;-73
2022/01/13 07:13:31;;;;;;;133.43;27.80;;;5.80;99.90;;;;;;5007722;28;20174;-73
2022/01/13 07:16:02;;;;;;;139.70;27.05;;;5.80;99.90;;;;;;5009694;28;20049;-73
2022/01/13 07:18:28;;;;;;;171.60;28.15;;;5.80;99.90;;;;;;5009097;28;20052;-72
2022/01/13 07:20:56;;;;;;;132.88;25.52;;;5.80;99.90;;;;;;5000106;28;20040;-73
2022/01/13 07:23:21;;;;;;;146.60;27.77;;;5.80;99.90;;;;;;5052394;28;20049;-72
2022/01/13 07:25:48;;;;;;;162.75;26.90;;;5.80;99.90;;;;;;5013419;28;20102;-72
2022/01/13 07:28:13;;;;;;;168.13;27.85;;;5.80;99.90;;;;;;5046389;28;20052;-72
2022/01/13 07:30:39;;;;;;;149.27;27.42;;;5.80;99.90;;;;;;4999948;28;20517;-73
2022/01/13 07:33:04;;;;;;;128.50;23.60;;;5.80;99.90;;;;;;4995089;28;20513;-72
2022/01/13 07:35:30;;;;;;;148.45;26.50;;;5.80;99.90;;;;;;5038470;28;20076;-73
2022/01/13 07:37:56;;;;;;;126.15;24.42;;;5.80;99.90;;;;;;5010003;28;20150;-72
2022/01/13 07:40:22;;;;;;;124.78;24.10;;;5.80;99.90;;;;;;5028259;28;20413;-73
2022/01/13 07:42:48;;;;;;;151.90;27.25;;;5.80;99.90;;;;;;5022690;28;20044;-72
2022/01/13 07:45:16;;;;;;;128.68;25.73;;;5.90;99.90;;;;;;5048074;28;20045;-73
2022/01/13 07:47:42;;;;;;;115.35;24.75;;;5.90;99.90;;;;;;5013237;28;20041;-72
2022/01/13 07:50:10;;;;;;;120.40;25.95;;;5.80;99.90;;;;;;5018226;28;20063;-72
2022/01/13 07:52:35;;;;;;;134.10;24.88;;;5.80;99.90;;;;;;5005419;28;20127;-72
2022/01/13 07:55:02;;;;;;;133.98;25.42;;;5.80;99.90;;;;;;5020326;28;20044;-72
2022/01/13 07:57:27;;;;;;;134.70;25.67;;;5.90;99.90;;;;;;5018998;28;20044;-72
2022/01/13 07:59:53;;;;;;;142.48;26.95;;;5.90;99.90;;;;;;5032206;28;20037;-72
2022/01/13 08:02:19;;;;;;;154.98;27.35;;;5.90;99.90;;;;;;5015125;28;20126;-73
2022/01/13 08:04:45;;;;;;;103.93;24.25;;;5.80;99.90;;;;;;5002090;28;20482;-73
2022/01/13 08:07:10;;;;;;;139.93;27.10;;;5.90;99.90;;;;;;5032134;28;20056;-72
2022/01/13 08:09:36;;;;;;;124.22;24.10;;;5.80;99.90;;;;;;5020223;28;20148;-72
2022/01/13 08:12:02;;;;;;;101.60;24.13;;;5.90;99.90;;;;;;5004132;28;20045;-72
2022/01/13 08:14:28;;;;;;;115.90;24.08;;;5.80;99.90;;;;;;5026236;28;20055;-73
2022/01/13 08:16:58;;;;;;;127.65;25.13;;;5.80;99.90;;;;;;5025269;28;20574;-73
2022/01/13 08:22:08;;;;;;;111.50;23.75;;;5.90;99.90;;;;;;5021333;28;20811;-72
2022/01/13 08:24:34;;;;;;;120.22;25.73;;;5.80;99.90;;;;;;5006716;28;20045;-72
2022/01/13 08:27:00;;;;;;;138.77;25.33;;;5.90;99.90;;;;;;5004820;28;20072;-73
2022/01/13 08:29:25;;;;;;;119.72;24.80;;;5.80;99.90;;;;;;5004563;28;20049;-72
2022/01/13 08:31:51;;;;;;;118.97;25.02;;;5.80;99.90;;;;;;5039376;28;20417;-72
2022/01/13 08:34:17;;;;;;;108.90;24.25;;;5.80;99.90;;;;;;5035354;28;20052;-72
2022/01/13 08:36:44;;;;;;;132.00;25.52;;;5.80;99.90;;;;;;5002723;28;20037;-73
2022/01/13 08:39:10;;;;;;;104.90;22.90;;;5.80;99.90;;;;;;5023708;28;20040;-72
2022/01/13 08:41:35;;;;;;;110.80;23.92;;;5.80;99.90;;;;;;5002682;28;20114;-72
2022/01/13 08:44:01;;;;;;;120.47;25.10;;;5.80;99.90;;;;;;5023774;28;20056;-72
2022/01/13 08:46:27;;;;;;;113.95;23.50;;;5.80;99.90;;;;;;5018121;28;20133;-73
2022/01/13 08:48:53;;;;;;;122.78;25.23;;;5.80;99.90;;;;;;5036473;28;20493;-72
2022/01/13 08:51:19;;;;;;;101.03;24.08;;;5.80;99.90;;;;;;5037963;28;20049;-73
2022/01/13 08:53:46;;;;;;;107.85;25.73;;;5.80;99.90;;;;;;5052734;28;20041;-73
2022/01/13 08:56:12;;;;;;;114.45;27.77;;;5.80;99.90;;;;;;5005777;28;20044;-72
2022/01/13 08:58:38;;;;;;;114.15;26.13;;;5.80;99.90;;;;;;5029597;28;20045;-72
2022/01/13 09:01:04;;;;;;;109.43;26.15;;;5.80;99.90;;;;;;5034289;28;20098;-73
2022/01/13 09:03:29;;;;;;;133.70;25.35;;;5.90;99.90;;;;;;5018332;28;20045;-72
2022/01/13 09:05:55;;;;;;;171.45;28.90;;;5.80;99.90;;;;;;5044667;28;20032;-72
2022/01/13 09:08:21;;;;;;;118.85;25.77;;;5.80;99.90;;;;;;5013592;28;20167;-72
2022/01/13 09:10:46;;;;;;;135.80;26.20;;;5.90;99.90;;;;;;5028348;28;20045;-72
2022/01/13 09:13:15;;;;;;;111.38;24.88;;;5.80;99.90;;;;;;5026176;28;20051;-72
2022/01/13 09:15:46;;;;;;;121.07;26.38;;;5.90;99.90;;;;;;5059475;28;20045;-73
2022/01/13 09:18:17;;;;;;;97.30;23.17;;;5.90;99.90;;;;;;5012047;28;20073;-72
2022/01/13 09:20:43;;;;;;;99.80;23.50;;;5.90;99.90;;;;;;5025757;28;20467;-72
2022/01/13 09:23:10;;;;;;;119.15;26.05;;;5.80;99.90;;;;;;5011449;28;20041;-73
2022/01/13 09:25:36;;;;;;;123.82;26.80;;;5.90;99.90;;;;;;5003049;28;20111;-72
2022/01/13 09:28:07;;;;;;;103.53;26.40;;;6.10;99.90;;;;;;5050796;28;20135;-73
2022/01/13 09:30:33;;;;;;;;;;;5.90;99.90;;;;;;5023021;28;20097;-72
2022/01/13 09:32:59;;;;;;;99.72;25.33;;;5.90;99.90;;;;;;5000087;28;19955;-73
2022/01/13 09:35:25;;;;;;;122.43;28.27;;;5.90;99.90;;;;;;5017918;28;20441;-73
2022/01/13 09:37:51;;;;;;;103.97;28.08;;;5.90;99.90;;;;;;4996484;28;20044;-73
2022/01/13 09:40:17;;;;;;;112.30;27.60;;;5.90;99.90;;;;;;5035809;28;20524;-73
2022/01/13 09:42:44;;;;;;;114.50;28.80;;;6.00;99.90;;;;;;5049796;28;20136;-73
2022/01/13 09:45:12;;;;;;;117.22;28.73;;;6.00;99.90;;;;;;5018445;28;20585;-73
2022/01/13 09:47:39;;;;;;;107.45;28.80;;;6.00;99.90;;;;;;5022425;28;20052;-74
2022/01/13 09:50:12;;;;;;;103.35;28.65;;;6.00;99.90;;;;;;5014752;28;20052;-73
2022/01/13 09:52:39;;;;;;;100.97;27.13;;;6.10;99.90;;;;;;5009901;28;20378;-73
2022/01/13 09:55:06;;;;;;;98.22;28.90;;;6.10;99.90;;;;;;5011043;28;20058;-72
2022/01/13 09:57:32;;;;;;;100.07;28.90;;;6.10;99.90;;;;;;5017018;28;20048;-73
2022/01/13 09:59:58;;;;;;;106.53;29.52;;;6.10;99.90;;;;;;5000255;28;20052;-73
2022/01/13 10:02:25;;;;;;;110.70;30.67;;;6.10;99.90;;;;;;5017053;28;20049;-73
2022/01/13 10:04:53;;;;;;;88.68;27.88;;;6.10;99.90;;;;;;5045451;28;20041;-73
2022/01/13 10:07:45;;;;;;;116.88;30.05;;;6.20;99.90;;;;;;5048550;28;20095;-73
2022/01/13 10:10:14;;;;;;;95.30;28.85;;;6.20;99.90;;;;;;5024443;28;20643;-73
2022/01/13 10:12:43;;;;;;;107.43;29.75;;;6.20;99.90;;;;;;5048446;28;20045;-72
2022/01/13 10:17:58;;;;;;;93.18;29.30;;;6.20;99.90;;;;;;5014864;28;20206;-73
2022/01/13 10:20:23;;;;;;;87.22;30.45;;;6.30;99.90;;;;;;5013674;28;20414;-72
2022/01/13 10:22:49;;;;;;;98.95;29.77;;;6.30;99.90;;;;;;5012513;28;20045;-72
2022/01/13 10:25:36;;;;;;;105.22;31.08;;;6.30;99.90;;;;;;5004023;28;20052;-72
2022/01/13 10:28:12;;;;;;;101.20;29.75;;;6.30;99.90;;;;;;5012046;28;20041;-73
2022/01/13 10:30:38;;;;;;;103.85;32.30;;;6.30;99.90;;;;;;5044714;28;20053;-73
2022/01/13 10:33:24;;;;;;;90.95;29.83;;;6.30;99.90;;;;;;5049081;28;20206;-73
2022/01/13 10:35:53;;;;;;;98.40;29.83;;;6.30;99.90;;;;;;5012631;28;20045;-72
2022/01/13 10:38:20;;;;;;;95.13;30.08;;;6.40;99.90;;;;;;5022707;28;20040;-72
2022/01/13 10:40:50;;;;;;;109.43;30.30;;;6.40;99.90;;;;;;5060946;28;20048;-72
2022/01/13 10:43:22;;;;;;;93.65;31.05;;;6.40;99.90;;;;;;5041277;28;20049;-72
2022/01/13 10:45:55;;;;;;;90.72;30.08;;;6.40;99.90;;;;;;5022567;28;20179;-73
2022/01/13 10:48:28;;;;;;;91.55;31.23;;;6.40;99.90;;;;;;5002135;28;20477;-72
2022/01/13 10:51:04;;;;;;;90.50;30.27;;;6.40;99.90;;;;;;5001299;28;21281;-72
2022/01/13 10:53:39;;;;;;;86.57;30.52;;;6.40;99.90;;;;;;5015065;28;20134;-73
2022/01/13 10:56:06;;;;;;;84.20;30.63;;;6.40;99.90;;;;;;5016692;28;20044;-73
2022/01/13 10:58:35;;;;;;;92.60;32.33;;;6.40;99.90;;;;;;5017643;28;20040;-73
2022/01/13 11:01:03;;;;;;;99.20;30.38;;;6.40;99.90;;;;;;5022221;28;20041;-73
2022/01/13 11:03:30;;;;;;;93.18;32.92;;;6.40;99.90;;;;;;5023679;28;20043;-74
2022/01/13 11:05:58;;;;;;;83.50;30.08;;;6.50;99.90;;;;;;5008553;28;20116;-73
2022/01/13 11:08:26;;;;;;;87.28;30.40;;;6.50;99.90;;;;;;5028990;28;20048;-73
2022/01/13 11:10:54;;;;;;;86.30;32.58;;;6.50;99.90;;;;;;5059948;28;20063;-73
2022/01/13 11:13:21;;;;;;;88.90;30.98;;;6.50;99.90;;;;;;5011803;28;20103;-73
2022/01/13 11:15:52;;;;;;;86.55;31.58;;;6.50;99.90;;;;;;5008714;28;20052;-74
2022/01/13 11:18:22;;;;;;;85.72;30.30;;;6.60;99.90;;;;;;5008549;28;20186;-73
2022/01/13 11:20:49;;;;;;;79.57;30.90;;;6.70;99.90;;;;;;5053873;28;20521;-73
2022/01/13 11:23:19;;;;;;;77.30;29.75;;;6.60;99.90;;;;;;5031776;28;20049;-73
2022/01/13 11:25:47;;;;;;;77.45;32.03;;;6.60;99.90;;;;;;5025274;28;20517;-73
2022/01/13 11:28:14;;;;;;;86.15;30.33;;;6.60;99.90;;;;;;5027451;28;20094;-73
2022/01/13 11:30:40;;;;;;;90.65;31.02;;;6.70;99.90;;;;;;5023962;28;20460;-73
2022/01/13 11:33:05;;;;;;;88.10;30.55;;;6.70;99.90;;;;;;5026189;28;20045;-73
2022/01/13 11:35:35;;;;;;;65.30;27.52;;;6.70;99.90;;;;;;5008231;28;20044;-73
2022/01/13 11:38:06;;;;;;;65.78;28.75;;;6.70;99.90;;;;;;5009269;28;20040;-73
2022/01/13 11:40:42;;;;;;;62.13;28.60;;;6.70;99.90;;;;;;5023732;28;20451;-73
2022/01/13 11:43:31;;;;;;;76.63;28.48;;;6.70;99.90;;;;;;5025018;28;20692;-73
2022/01/13 11:46:21;;;;;;;62.97;28.45;;;6.70;99.90;;;;;;5025538;28;20413;-73
2022/01/13 11:49:09;;;;;;;69.25;27.42;;;6.70;99.90;;;;;;5011617;28;20045;-73
2022/01/13 11:51:44;;;;;;;72.95;29.50;;;6.70;99.90;;;;;;5025054;28;20231;-73
2022/01/13 11:54:10;;;;;;;73.47;29.55;;;6.70;99.90;;;;;;5027966;28;20040;-73
2022/01/13 11:56:36;;;;;;;68.60;28.52;;;6.70;99.90;;;;;;5026446;28;20102;-73
2022/01/13 11:59:10;;;;;;;61.75;27.88;;;6.90;99.90;;;;;;5007827;28;20041;-73
2022/01/13 12:01:36;;;;;;;62.92;28.25;;;6.70;99.90;;;;;;5008754;28;20572;-73
2022/01/13 12:04:04;;;;;;;60.53;27.58;;;7.10;99.90;;;;;;5026679;28;20116;-73
2022/01/13 12:06:45;;;;;;;59.05;28.85;;;6.80;99.90;;;;;;5025816;28;20044;-73
2022/01/13 12:09:17;;;;;;;57.75;25.63;;;6.80;99.90;;;;;;5027240;28;20045;-73
2022/01/13 12:11:51;;;;;;;53.90;25.40;;;6.80;99.90;;;;;;5026740;28;20391;-73
2022/01/13 12:14:34;;;;;;;56.47;26.80;;;6.80;99.90;;;;;;5007457;28;20118;-75
2022/01/13 12:17:18;;;;;;;51.55;26.55;;;6.80;99.90;;;;;;5043267;28;20041;-75
2022/01/13 12:19:47;;;;;;;57.20;24.73;;;6.90;99.90;;;;;;5009410;28;20056;-74
2022/01/13 12:22:35;;;;;;;50.67;25.77;;;6.90;99.90;;;;;;5023535;28;20406;-75
2022/01/13 12:25:04;;;;;;;55.92;26.20;;;6.90;99.90;;;;;;5027699;28;20063;-74
2022/01/13 12:27:39;;;;;;;61.55;26.52;;;6.90;99.90;;;;;;5027150;28;20120;-75
2022/01/13 12:30:11;;;;;;;59.17;24.20;;;6.90;99.90;;;;;;5010711;28;20048;-74
2022/01/13 12:32:42;;;;;;;67.03;25.75;;;6.90;99.90;;;;;;5010146;28;20044;-74
2022/01/13 12:35:34;;;;;;;55.25;25.63;;;6.90;99.90;;;;;;5010174;28;20049;-74
2022/01/13 12:38:11;;;;;;;62.45;26.40;;;7.00;99.90;;;;;;5020118;28;20041;-74
2022/01/13 12:41:13;;;;;;;55.33;25.60;;;7.00;99.90;;;;;;5027341;28;20056;-74
2022/01/13 12:46:15;;;;;;;57.55;25.30;;;7.20;99.90;;;;;;5030969;28;20049;-73
2022/01/13 12:48:43;;;;;;;52.00;25.83;;;7.20;99.90;;;;;;5011700;28;20591;-73
2022/01/13 12:51:21;;;;;;;54.03;24.25;;;7.20;99.90;;;;;;5027419;28;20055;-73
2022/01/13 12:53:48;;;;;;;50.25;24.30;;;7.30;99.90;;;;;;5043130;28;20053;-73
2022/01/13 12:56:21;;;;;;;53.22;24.75;;;7.30;99.90;;;;;;5009569;28;20055;-74
2022/01/13 12:58:53;;;;;;;55.63;24.25;;;7.40;99.90;;;;;;5026086;28;20077;-73